Wetterdaten: Dienstag, 18.11.2014
Datum Zeit Temp. A. Feuchte A. Luftdruck Regen Wind Richtung Richtung Sonnenschein ET UV Solar Taupunkt Windchill Windben Empfang
18.11.2014 00:00 6,9 C 80 % 1002,0 hPa 0,0 l/m 0,0 km/h (0 Bft) O 89 0 min 0,000 mm 0,0 UV-I 0 W/m 3,7 C 6,9 C 0,0 km/h (0 Bft) 0,00 %
18.11.2014 00:15 6,9 C 80 % 1002,0 hPa 0,0 l/m 0,0 km/h (0 Bft) O 89 0 min 0,000 mm 0,0 UV-I 0 W/m 3,7 C 6,9 C 0,0 km/h (0 Bft) 0,00 %
18.11.2014 00:30 6,9 C 80 % 1001,6 hPa 0,0 l/m 0,0 km/h (0 Bft) O 89 0 min 0,000 mm 0,0 UV-I 0 W/m 3,7 C 6,9 C 0,0 km/h (0 Bft) 0,00 %
18.11.2014 00:45 6,9 C 80 % 1001,4 hPa 0,0 l/m 0,0 km/h (0 Bft) O 89 0 min 0,000 mm 0,0 UV-I 0 W/m 3,7 C 6,9 C 0,0 km/h (0 Bft) 0,00 %
18.11.2014 01:00 6,9 C 80 % 1001,4 hPa 0,0 l/m 0,0 km/h (0 Bft) O 89 0 min 0,000 mm 0,0 UV-I 0 W/m 3,7 C 6,9 C 0,0 km/h (0 Bft) 0,00 %
18.11.2014 01:15 6,9 C 80 % 1001,0 hPa 0,0 l/m 0,0 km/h (0 Bft) O 89 0 min 0,000 mm 0,0 UV-I 0 W/m 3,7 C 6,9 C 0,0 km/h (0 Bft) 0,00 %
18.11.2014 01:30 6,9 C 80 % 1001,1 hPa 0,0 l/m 0,0 km/h (0 Bft) O 89 0 min 0,000 mm 0,0 UV-I 0 W/m 3,7 C 6,9 C 0,0 km/h (0 Bft) 0,00 %
18.11.2014 01:45 6,9 C 80 % 1000,9 hPa 0,0 l/m 0,0 km/h (0 Bft) O 89 0 min 0,000 mm 0,0 UV-I 0 W/m 3,7 C 6,9 C 0,0 km/h (0 Bft) 0,00 %
18.11.2014 02:00 6,9 C 80 % 1000,9 hPa 0,0 l/m 0,0 km/h (0 Bft) O 89 0 min 0,000 mm 0,0 UV-I 0 W/m 3,7 C 6,9 C 0,0 km/h (0 Bft) 0,00 %
18.11.2014 02:15 6,9 C 80 % 1000,7 hPa 0,0 l/m 0,0 km/h (0 Bft) O 89 0 min 0,000 mm 0,0 UV-I 0 W/m 3,7 C 6,9 C 0,0 km/h (0 Bft) 0,00 %
18.11.2014 02:30 6,9 C 80 % 1000,6 hPa 0,0 l/m 0,0 km/h (0 Bft) O 89 0 min 0,000 mm 0,0 UV-I 0 W/m 3,7 C 6,9 C 0,0 km/h (0 Bft) 0,00 %
18.11.2014 02:45 6,9 C 80 % 1000,6 hPa 0,0 l/m 0,0 km/h (0 Bft) O 89 0 min 0,000 mm 0,0 UV-I 0 W/m 3,7 C 6,9 C 0,0 km/h (0 Bft) 0,00 %
18.11.2014 03:00 6,9 C 80 % 1000,5 hPa 0,0 l/m 0,0 km/h (0 Bft) O 89 0 min 0,000 mm 0,0 UV-I 0 W/m 3,7 C 6,9 C 0,0 km/h (0 Bft) 0,00 %
18.11.2014 03:15 6,9 C 80 % 1000,5 hPa 0,0 l/m 0,0 km/h (0 Bft) O 89 0 min 0,000 mm 0,0 UV-I 0 W/m 3,7 C 6,9 C 0,0 km/h (0 Bft) 0,00 %
18.11.2014 03:30 6,9 C 80 % 1000,5 hPa 0,0 l/m 0,0 km/h (0 Bft) O 89 0 min 0,000 mm 0,0 UV-I 0 W/m 3,7 C 6,9 C 0,0 km/h (0 Bft) 0,00 %
18.11.2014 03:45 7,4 C 81 % 1000,4 hPa 0,6 l/m 14,4 km/h (3 Bft) O-SO 102 0 min 0,000 mm 0,0 UV-I 0 W/m 4,4 C 2,3 C 19,8 km/h (3 Bft) 0,00 %
18.11.2014 04:00 7,3 C 81 % 1000,4 hPa 0,6 l/m 5,4 km/h (1 Bft) O 98 0 min 0,000 mm 0,0 UV-I 0 W/m 4,3 C 7,3 C 11,9 km/h (2 Bft) 0,00 %
18.11.2014 04:15 7,3 C 81 % 1000,2 hPa 0,0 l/m 11,9 km/h (2 Bft) O 92 0 min 0,000 mm 0,0 UV-I 0 W/m 4,3 C 3,5 C 15,8 km/h (3 Bft) 0,00 %
18.11.2014 04:30 7,3 C 81 % 1000,0 hPa 0,0 l/m 18,0 km/h (3 Bft) O-SO 107 0 min 0,000 mm 0,0 UV-I 0 W/m 4,3 C 0,6 C 24,1 km/h (4 Bft) 0,00 %
18.11.2014 04:45 7,3 C 81 % 1000,0 hPa 0,0 l/m 10,8 km/h (2 Bft) O 79 0 min 0,000 mm 0,0 UV-I 0 W/m 4,3 C 4,1 C 15,8 km/h (3 Bft) 0,00 %
18.11.2014 05:00 7,4 C 81 % 1000,0 hPa 0,0 l/m 9,7 km/h (2 Bft) O-NO 67 0 min 0,000 mm 0,0 UV-I 0 W/m 4,4 C 4,9 C 19,8 km/h (3 Bft) 0,00 %
18.11.2014 05:15 7,4 C 81 % 1000,2 hPa 0,0 l/m 0,0 km/h (0 Bft) O-NO 67 0 min 0,000 mm 0,0 UV-I 0 W/m 4,4 C 7,4 C 19,8 km/h (3 Bft) 0,00 %
18.11.2014 05:30 7,3 C 80 % 999,6 hPa 0,0 l/m 16,6 km/h (3 Bft) O-SO 114 0 min 0,000 mm 0,0 UV-I 0 W/m 4,1 C 1,1 C 24,1 km/h (4 Bft) 0,00 %
18.11.2014 05:45 7,3 C 80 % 999,6 hPa 0,0 l/m 0,0 km/h (0 Bft) O-SO 113 0 min 0,000 mm 0,0 UV-I 0 W/m 4,1 C 7,3 C 0,0 km/h (0 Bft) 0,00 %
18.11.2014 06:00 7,1 C 80 % 1000,1 hPa 0,0 l/m 23,4 km/h (4 Bft) O-SO 102 0 min 0,000 mm 0,0 UV-I 0 W/m 3,9 C -1,6 C 28,1 km/h (4 Bft) 0,00 %
18.11.2014 06:15 6,9 C 79 % 999,6 hPa 0,0 l/m 13,3 km/h (3 Bft) O 95 0 min 0,000 mm 0,0 UV-I 0 W/m 3,5 C 2,2 C 15,8 km/h (3 Bft) 0,00 %
18.11.2014 06:30 6,8 C 79 % 999,9 hPa 0,0 l/m 4,7 km/h (1 Bft) S 186 0 min 0,000 mm 0,0 UV-I 0 W/m 3,4 C 6,8 C 11,9 km/h (2 Bft) 0,00 %
18.11.2014 06:45 6,8 C 79 % 999,9 hPa 0,0 l/m 4,0 km/h (1 Bft) W-SW 256 0 min 0,000 mm 0,0 UV-I 0 W/m 3,4 C 6,8 C 7,9 km/h (2 Bft) 0,00 %
18.11.2014 07:00 6,8 C 79 % 1000,1 hPa 0,0 l/m 9,0 km/h (2 Bft) S 171 0 min 0,000 mm 0,0 UV-I 0 W/m 3,4 C 4,7 C 11,9 km/h (2 Bft) 0,00 %
18.11.2014 07:15 6,7 C 79 % 1000,7 hPa 0,0 l/m 7,2 km/h (2 Bft) O-SO 114 0 min 0,000 mm 0,0 UV-I 0 W/m 3,3 C 6,0 C 11,9 km/h (2 Bft) 0,00 %
18.11.2014 07:30 6,7 C 79 % 1001,0 hPa 0,0 l/m 0,4 km/h (0 Bft) W-SW 256 0 min 0,000 mm 0,0 UV-I 0 W/m 3,3 C 6,7 C 4,0 km/h (1 Bft) 0,00 %
18.11.2014 07:45 6,7 C 79 % 1001,1 hPa 0,0 l/m 0,7 km/h (0 Bft) O-SO 120 0 min 0,000 mm 0,0 UV-I 0 W/m 3,3 C 6,7 C 4,0 km/h (1 Bft) 0,00 %
18.11.2014 08:00 6,7 C 79 % 1001,2 hPa 0,0 l/m 0,0 km/h (0 Bft) W-NW 296 0 min 0,000 mm 0,0 UV-I 0 W/m 3,3 C 6,7 C 0,0 km/h (0 Bft) 0,00 %
18.11.2014 08:15 6,7 C 79 % 1001,4 hPa 0,0 l/m 0,0 km/h (0 Bft) W 280 0 min 0,000 mm 0,0 UV-I 0 W/m 3,3 C 6,7 C 0,0 km/h (0 Bft) 0,00 %
18.11.2014 08:30 6,7 C 79 % 1001,6 hPa 0,0 l/m 0,7 km/h (0 Bft) O-SO 111 0 min 0,000 mm 0,0 UV-I 0 W/m 3,3 C 6,7 C 4,0 km/h (1 Bft) 0,00 %
18.11.2014 08:45 6,7 C 79 % 1001,9 hPa 0,0 l/m 0,0 km/h (0 Bft) S-SW 210 0 min 0,000 mm 0,0 UV-I 0 W/m 3,3 C 6,7 C 0,0 km/h (0 Bft) 0,00 %
18.11.2014 09:00 6,3 C 79 % 1002,3 hPa 0,0 l/m 4,3 km/h (1 Bft) W-SW 256 0 min 0,000 mm 0,0 UV-I 10 W/m 2,9 C 6,3 C 7,9 km/h (2 Bft) 0,00 %
18.11.2014 09:15 5,9 C 77 % 1002,4 hPa 0,0 l/m 0,7 km/h (0 Bft) N-NW 328 0 min 0,000 mm 0,0 UV-I 58 W/m 2,2 C 5,9 C 4,0 km/h (1 Bft) 0,00 %
18.11.2014 09:30 5,8 C 78 % 1002,5 hPa 0,0 l/m 0,4 km/h (0 Bft) W-NW 288 0 min 0,000 mm 1,0 UV-I 55 W/m 2,3 C 5,8 C 4,0 km/h (1 Bft) 0,00 %
18.11.2014 09:45 5,6 C 77 % 1002,7 hPa 0,0 l/m 13,0 km/h (3 Bft) W-SW 256 0 min 0,000 mm 1,0 UV-I 66 W/m 1,9 C 0,9 C 15,8 km/h (3 Bft) 0,00 %
18.11.2014 10:00 5,2 C 78 % 1002,9 hPa 0,0 l/m 4,7 km/h (1 Bft) N 353 0 min 0,000 mm 1,0 UV-I 66 W/m 1,7 C 5,2 C 7,9 km/h (2 Bft) 0,00 %
18.11.2014 10:15 4,9 C 79 % 1003,0 hPa 0,3 l/m 0,7 km/h (0 Bft) SW 231 0 min 0,000 mm 1,0 UV-I 55 W/m 1,6 C 4,9 C 4,0 km/h (1 Bft) 0,00 %
18.11.2014 10:30 4,8 C 79 % 1003,4 hPa 0,0 l/m 0,7 km/h (0 Bft) W-SW 255 0 min 0,000 mm 1,0 UV-I 78 W/m 1,5 C 4,8 C 4,0 km/h (1 Bft) 0,00 %
18.11.2014 10:45 4,6 C 80 % 1003,5 hPa 0,3 l/m 4,7 km/h (1 Bft) W 261 0 min 0,000 mm 1,0 UV-I 88 W/m 1,5 C 4,6 C 7,9 km/h (2 Bft) 0,00 %
18.11.2014 11:00 4,4 C 81 % 1004,0 hPa 0,3 l/m 0,4 km/h (0 Bft) O 87 0 min 0,000 mm 1,0 UV-I 99 W/m 1,4 C 4,4 C 4,0 km/h (1 Bft) 0,00 %
18.11.2014 11:15 4,4 C 81 % 1004,0 hPa 0,3 l/m 2,2 km/h (1 Bft) W-SW 255 0 min 0,000 mm 1,0 UV-I 110 W/m 1,4 C 4,4 C 4,0 km/h (1 Bft) 0,00 %
18.11.2014 11:30 4,4 C 81 % 1003,9 hPa 0,6 l/m 4,0 km/h (1 Bft) SO 129 0 min 0,000 mm 1,0 UV-I 122 W/m 1,4 C 4,4 C 7,9 km/h (2 Bft) 0,00 %
18.11.2014 11:45 4,4 C 82 % 1004,2 hPa 0,6 l/m 2,2 km/h (1 Bft) SW 215 0 min 0,000 mm 1,0 UV-I 133 W/m 1,6 C 4,4 C 4,0 km/h (1 Bft) 0,00 %
18.11.2014 12:00 4,5 C 81 % 1004,2 hPa 0,0 l/m 1,8 km/h (1 Bft) N-NW 334 0 min 0,000 mm 1,0 UV-I 120 W/m 1,5 C 4,5 C 4,0 km/h (1 Bft) 0,00 %
18.11.2014 12:15 4,5 C 81 % 1004,1 hPa 0,6 l/m 0,0 km/h (0 Bft) W-SW 254 0 min 0,000 mm 1,0 UV-I 110 W/m 1,5 C 4,5 C 0,0 km/h (0 Bft) 0,00 %
18.11.2014 12:30 4,6 C 81 % 1004,3 hPa 0,0 l/m 4,7 km/h (1 Bft) W-SW 256 0 min 0,000 mm 1,0 UV-I 110 W/m 1,6 C 4,6 C 7,9 km/h (2 Bft) 0,00 %
18.11.2014 12:45 4,7 C 81 % 1004,4 hPa 0,3 l/m 0,7 km/h (0 Bft) W-SW 253 0 min 0,000 mm 1,0 UV-I 105 W/m 1,7 C 4,7 C 4,0 km/h (1 Bft) 0,00 %
18.11.2014 13:00 4,9 C 81 % 1004,4 hPa 0,0 l/m 0,0 km/h (0 Bft) SW 227 0 min 0,000 mm 1,0 UV-I 105 W/m 1,9 C 4,9 C 0,0 km/h (0 Bft) 0,00 %
18.11.2014 13:15 5,1 C 81 % 1004,7 hPa 0,0 l/m 0,0 km/h (0 Bft) W-SW 252 0 min 0,000 mm 1,0 UV-I 100 W/m 2,1 C 5,1 C 0,0 km/h (0 Bft) 0,00 %
18.11.2014 13:30 5,2 C 81 % 1004,9 hPa 0,0 l/m 1,4 km/h (1 Bft) W-SW 256 0 min 0,000 mm 1,0 UV-I 90 W/m 2,2 C 5,2 C 4,0 km/h (1 Bft) 0,00 %
18.11.2014 13:45 5,4 C 80 % 1004,9 hPa 0,0 l/m 7,2 km/h (2 Bft) W-SW 253 0 min 0,000 mm 1,0 UV-I 80 W/m 2,2 C 4,7 C 11,9 km/h (2 Bft) 0,00 %
18.11.2014 14:00 5,5 C 78 % 1005,0 hPa 0,0 l/m 4,0 km/h (1 Bft) W-SW 253 0 min 0,000 mm 1,0 UV-I 70 W/m 2,0 C 5,5 C 7,9 km/h (2 Bft) 0,00 %
18.11.2014 14:15 5,4 C 79 % 1005,2 hPa 0,0 l/m 0,0 km/h (0 Bft) SO 130 0 min 0,000 mm 1,0 UV-I 76 W/m 2,1 C 5,4 C 0,0 km/h (0 Bft) 0,00 %
18.11.2014 14:30 5,4 C 78 % 1005,2 hPa 0,0 l/m 0,4 km/h (0 Bft) O-NO 58 0 min 0,000 mm 1,0 UV-I 88 W/m 1,9 C 5,4 C 4,0 km/h (1 Bft) 0,00 %
18.11.2014 14:45 5,3 C 79 % 1005,4 hPa 0,3 l/m 2,9 km/h (1 Bft) O-NO 72 0 min 0,000 mm 0,0 UV-I 66 W/m 2,0 C 5,3 C 4,0 km/h (1 Bft) 0,00 %
18.11.2014 15:00 5,2 C 80 % 1005,6 hPa 0,0 l/m 7,2 km/h (2 Bft) W-SW 253 0 min 0,000 mm 0,0 UV-I 55 W/m 2,0 C 4,5 C 11,9 km/h (2 Bft) 0,00 %
18.11.2014 15:15 5,1 C 80 % 1005,8 hPa 0,3 l/m 1,4 km/h (1 Bft) NW 320 0 min 0,000 mm 0,0 UV-I 23 W/m 1,9 C 5,1 C 4,0 km/h (1 Bft) 0,00 %
18.11.2014 15:30 5,1 C 81 % 1005,8 hPa 0,0 l/m 0,7 km/h (0 Bft) N 357 0 min 0,000 mm 0,0 UV-I 0 W/m 2,1 C 5,1 C 4,0 km/h (1 Bft) 0,00 %
18.11.2014 15:45 5,1 C 80 % 1006,0 hPa 0,0 l/m 2,2 km/h (1 Bft) S-SW 194 0 min 0,000 mm 0,0 UV-I 0 W/m 1,9 C 5,1 C 4,0 km/h (1 Bft) 0,00 %
18.11.2014 16:00 5,1 C 80 % 1006,1 hPa 0,3 l/m 6,5 km/h (2 Bft) W-SW 256 0 min 0,000 mm 0,0 UV-I 0 W/m 1,9 C 5,0 C 7,9 km/h (2 Bft) 0,00 %
18.11.2014 16:15 5,0 C 81 % 1006,3 hPa 0,0 l/m 0,0 km/h (0 Bft) SO 125 0 min 0,000 mm 0,0 UV-I 0 W/m 2,0 C 5,0 C 0,0 km/h (0 Bft) 0,00 %
18.11.2014 16:30 5,0 C 81 % 1006,4 hPa 0,3 l/m 0,4 km/h (0 Bft) S 172 0 min 0,000 mm 0,0 UV-I 0 W/m 2,0 C 5,0 C 4,0 km/h (1 Bft) 0,00 %
18.11.2014 16:45 5,0 C 81 % 1006,5 hPa 0,0 l/m 0,0 km/h (0 Bft) W-SW 254 0 min 0,000 mm 0,0 UV-I 0 W/m 2,0 C 5,0 C 0,0 km/h (0 Bft) 0,00 %
18.11.2014 17:00 5,1 C 81 % 1006,5 hPa 0,0 l/m 1,4 km/h (1 Bft) SW 230 0 min 0,000 mm 0,0 UV-I 0 W/m 2,1 C 5,1 C 4,0 km/h (1 Bft) 0,00 %
18.11.2014 17:15 5,3 C 80 % 1006,6 hPa 0,0 l/m 3,2 km/h (1 Bft) O-SO 120 0 min 0,000 mm 0,0 UV-I 0 W/m 2,1 C 5,3 C 4,0 km/h (1 Bft) 0,00 %
18.11.2014 17:30 5,3 C 80 % 1006,8 hPa 0,0 l/m 2,9 km/h (1 Bft) W-SW 256 0 min 0,000 mm 0,0 UV-I 0 W/m 2,1 C 5,3 C 4,0 km/h (1 Bft) 0,00 %
18.11.2014 17:45 5,3 C 80 % 1007,1 hPa 0,0 l/m 0,0 km/h (0 Bft) SW 220 0 min 0,000 mm 0,0 UV-I 0 W/m 2,1 C 5,3 C 0,0 km/h (0 Bft) 0,00 %
18.11.2014 18:00 5,3 C 80 % 1007,2 hPa 0,3 l/m 1,8 km/h (1 Bft) O-NO 66 0 min 0,000 mm 0,0 UV-I 0 W/m 2,1 C 5,3 C 7,9 km/h (2 Bft) 0,00 %
18.11.2014 18:15 5,3 C 80 % 1007,5 hPa 0,0 l/m 1,8 km/h (1 Bft) SW 231 0 min 0,000 mm 0,0 UV-I 0 W/m 2,1 C 5,3 C 4,0 km/h (1 Bft) 0,00 %
18.11.2014 18:30 5,4 C 80 % 1007,4 hPa 0,0 l/m 0,4 km/h (0 Bft) S-SW 195 0 min 0,000 mm 0,0 UV-I 0 W/m 2,2 C 5,4 C 4,0 km/h (1 Bft) 0,00 %
18.11.2014 18:45 5,4 C 80 % 1007,5 hPa 0,0 l/m 0,4 km/h (0 Bft) W-NW 287 0 min 0,000 mm 0,0 UV-I 0 W/m 2,2 C 5,4 C 4,0 km/h (1 Bft) 0,00 %
18.11.2014 19:00 5,5 C 79 % 1007,5 hPa 0,0 l/m 0,7 km/h (0 Bft) S 191 0 min 0,000 mm 0,0 UV-I 0 W/m 2,2 C 5,5 C 4,0 km/h (1 Bft) 0,00 %
18.11.2014 19:15 5,6 C 78 % 1008,0 hPa 0,0 l/m 0,0 km/h (0 Bft) W-NW 298 0 min 0,000 mm 0,0 UV-I 0 W/m 2,1 C 5,6 C 0,0 km/h (0 Bft) 0,00 %
18.11.2014 19:30 5,6 C 77 % 1008,0 hPa 0,0 l/m 0,4 km/h (0 Bft) W-SW 251 0 min 0,000 mm 0,0 UV-I 0 W/m 1,9 C 5,6 C 4,0 km/h (1 Bft) 0,00 %
18.11.2014 19:45 5,5 C 77 % 1008,1 hPa 0,0 l/m 0,7 km/h (0 Bft) SW 228 0 min 0,000 mm 0,0 UV-I 0 W/m 1,8 C 5,5 C 4,0 km/h (1 Bft) 0,00 %
18.11.2014 20:00 5,3 C 79 % 1008,4 hPa 0,0 l/m 0,0 km/h (0 Bft) S-SW 195 0 min 0,000 mm 0,0 UV-I 0 W/m 2,0 C 5,3 C 0,0 km/h (0 Bft) 0,00 %
18.11.2014 20:15 5,4 C 78 % 1008,4 hPa 0,0 l/m 1,8 km/h (1 Bft) W-NW 287 0 min 0,000 mm 0,0 UV-I 0 W/m 1,9 C 5,4 C 4,0 km/h (1 Bft) 0,00 %
18.11.2014 20:30 5,5 C 78 % 1008,6 hPa 0,0 l/m 1,4 km/h (1 Bft) SW 227 0 min 0,000 mm 0,0 UV-I 0 W/m 2,0 C 5,5 C 4,0 km/h (1 Bft) 0,00 %
18.11.2014 20:45 5,5 C 79 % 1008,8 hPa 0,0 l/m 0,0 km/h (0 Bft) S 173 0 min 0,000 mm 0,0 UV-I 0 W/m 2,2 C 5,5 C 0,0 km/h (0 Bft) 0,00 %
18.11.2014 21:00 5,4 C 79 % 1008,7 hPa 0,0 l/m 0,0 km/h (0 Bft) S-SW 213 0 min 0,000 mm 0,0 UV-I 0 W/m 2,1 C 5,4 C 0,0 km/h (0 Bft) 0,00 %
18.11.2014 21:15 5,2 C 80 % 1009,2 hPa 0,0 l/m 0,0 km/h (0 Bft) W 272 0 min 0,000 mm 0,0 UV-I 0 W/m 2,0 C 5,2 C 0,0 km/h (0 Bft) 0,00 %
18.11.2014 21:30 5,0 C 80 % 1009,1 hPa 0,0 l/m 0,0 km/h (0 Bft) S-SW 208 0 min 0,000 mm 0,0 UV-I 0 W/m 1,8 C 5,0 C 0,0 km/h (0 Bft) 0,00 %
18.11.2014 21:45 4,9 C 80 % 1009,1 hPa 0,0 l/m 0,0 km/h (0 Bft) W-SW 251 0 min 0,000 mm 0,0 UV-I 0 W/m 1,7 C 4,9 C 0,0 km/h (0 Bft) 0,00 %
18.11.2014 22:00 4,8 C 81 % 1009,2 hPa 0,0 l/m 0,0 km/h (0 Bft) W-SW 253 0 min 0,000 mm 0,0 UV-I 0 W/m 1,8 C 4,8 C 0,0 km/h (0 Bft) 0,00 %
18.11.2014 22:15 4,5 C 82 % 1009,4 hPa 0,0 l/m 0,0 km/h (0 Bft) S-SW 213 0 min 0,000 mm 0,0 UV-I 0 W/m 1,7 C 4,5 C 0,0 km/h (0 Bft) 0,00 %
18.11.2014 22:30 4,6 C 82 % 1009,3 hPa 0,0 l/m 0,0 km/h (0 Bft) SW 225 0 min 0,000 mm 0,0 UV-I 0 W/m 1,8 C 4,6 C 0,0 km/h (0 Bft) 0,00 %
18.11.2014 22:45 4,6 C 81 % 1009,5 hPa 0,0 l/m 0,0 km/h (0 Bft) W-SW 256 0 min 0,000 mm 0,0 UV-I 0 W/m 1,6 C 4,6 C 0,0 km/h (0 Bft) 0,00 %
18.11.2014 23:00 4,5 C 82 % 1009,6 hPa 0,0 l/m 0,0 km/h (0 Bft) S-SW 205 0 min 0,000 mm 0,0 UV-I 0 W/m 1,7 C 4,5 C 0,0 km/h (0 Bft) 0,00 %
18.11.2014 23:15 4,4 C 83 % 1009,5 hPa 0,0 l/m 0,0 km/h (0 Bft) S-SW 201 0 min 0,000 mm 0,0 UV-I 0 W/m 1,8 C 4,4 C 0,0 km/h (0 Bft) 0,00 %
18.11.2014 23:30 4,4 C 82 % 1009,6 hPa 0,0 l/m 0,0 km/h (0 Bft) S-SW 203 0 min 0,000 mm 0,0 UV-I 0 W/m 1,6 C 4,4 C 0,0 km/h (0 Bft) 0,00 %
_ Min-Zeit 11:00 09:15 05:30 - 00:00 - - - - - - 11:00 06:00 00:00 00:00
Minimum _ 4,4 C 77 % 999,6 hPa - 0,0 km/h (0 Bft) - - - - - - 1,4 C -1,6 C 0,0 km/h (0 Bft) 0,00 %
_ Max-Zeit 03:45 23:15 23:00 03:45 06:00 - - 00:00 00:00 09:30 11:45 03:45 05:15 06:00 00:00
Maximum _ 7,4 C 83 % 1009,6 hPa 0,6 l/m 23,4 km/h
O-SO (4 Bft)
- - 0 min 0,000 mm 1,0 UV-I 133 W/m 4,4 C 7,4 C 28,1 km/h
O-SO (4 Bft)
0,00 %
Durchschnitt _ 5,8 C 80 % 1004,2 hPa #6,0 l/m 2,6 km/h (1 Bft) W-SW - #0 min. #0,000 mm 1,0 UV-I 82 W/m 2,6 C 5,3 C 4,9 km/h (1 Bft) 0,00 %